createdAt,value
2023-01-28T00:01:09.695Z,0.30
2023-01-28T00:03:38.299Z,0.30
2023-01-28T00:06:11.765Z,0.30
2023-01-28T00:08:39.114Z,0.20
2023-01-28T00:11:08.799Z,0.30
2023-01-28T00:13:36.179Z,0.30
2023-01-28T00:16:08.571Z,0.30
2023-01-28T00:18:39.126Z,0.30
2023-01-28T00:21:12.120Z,0.20
2023-01-28T00:23:42.437Z,0.20
2023-01-28T00:26:14.977Z,0.20
2023-01-28T00:28:43.093Z,0.20
2023-01-28T00:31:23.879Z,0.20
2023-01-28T00:33:52.029Z,0.20
2023-01-28T00:36:21.534Z,0.20
2023-01-28T00:39:01.461Z,0.20
2023-01-28T00:41:29.967Z,0.20
2023-01-28T00:43:58.029Z,0.20
2023-01-28T00:46:28.865Z,0.20
2023-01-28T00:48:56.621Z,0.20
2023-01-28T00:51:23.803Z,0.20
2023-01-28T00:53:54.533Z,0.20
2023-01-28T00:56:24.976Z,0.20
2023-01-28T00:58:52.336Z,0.20
2023-01-28T01:01:22.307Z,0.20
2023-01-28T01:04:03.235Z,0.30
2023-01-28T01:06:35.490Z,0.20
2023-01-28T01:09:08.816Z,0.30
2023-01-28T01:11:36.428Z,0.20
2023-01-28T01:14:05.362Z,0.20
2023-01-28T01:16:33.641Z,0.20
2023-01-28T01:19:02.550Z,0.20
2023-01-28T01:21:31.316Z,0.20
2023-01-28T01:23:58.592Z,0.20
2023-01-28T01:26:27.805Z,0.20
2023-01-28T01:28:54.951Z,0.20
2023-01-28T01:31:23.017Z,0.20
2023-01-28T01:33:52.360Z,0.20
2023-01-28T01:36:21.880Z,0.20
2023-01-28T01:38:56.399Z,0.20
2023-01-28T01:41:32.504Z,0.20
2023-01-28T01:44:03.561Z,0.20
2023-01-28T01:46:38.107Z,0.20
2023-01-28T01:49:25.753Z,0.30
2023-01-28T01:52:10.790Z,0.30
2023-01-28T01:54:41.464Z,0.30
2023-01-28T01:57:13.952Z,0.20
2023-01-28T01:59:42.684Z,0.20
2023-01-28T02:02:11.294Z,0.20
2023-01-28T02:04:47.125Z,0.20
2023-01-28T02:07:16.497Z,0.20
2023-01-28T02:09:43.659Z,0.20
2023-01-28T02:12:20.788Z,0.30
2023-01-28T02:15:11.490Z,0.30
2023-01-28T02:17:39.317Z,0.30
2023-01-28T02:20:13.390Z,0.30
2023-01-28T02:22:40.559Z,0.20
2023-01-28T02:25:19.920Z,0.30
2023-01-28T02:28:29.766Z,0.30
2023-01-28T02:31:16.519Z,0.20
2023-01-28T02:34:33.680Z,0.20
2023-01-28T02:37:14.248Z,0.30
2023-01-28T02:39:48.879Z,0.30
2023-01-28T02:42:25.550Z,0.30
2023-01-28T02:44:52.816Z,0.30
2023-01-28T02:47:38.483Z,0.30
2023-01-28T02:50:12.051Z,0.20
2023-01-28T02:53:23.616Z,0.20
2023-01-28T02:56:05.447Z,0.20
2023-01-28T02:59:27.957Z,0.20
2023-01-28T03:02:08.300Z,0.20
2023-01-28T03:04:58.527Z,0.20
2023-01-28T03:07:29.986Z,0.20
2023-01-28T03:10:04.258Z,0.20
2023-01-28T03:12:54.031Z,0.20
2023-01-28T03:15:53.977Z,0.20
2023-01-28T03:18:48.941Z,0.10
2023-01-28T03:21:46.493Z,0.10
2023-01-28T03:24:42.174Z,0.10
2023-01-28T03:27:51.342Z,0.10
2023-01-28T03:30:55.018Z,0.00
2023-01-28T03:33:43.301Z,0.10
2023-01-28T03:36:29.633Z,0.00
2023-01-28T03:38:58.489Z,0.10
2023-01-28T03:41:26.857Z,0.00
2023-01-28T03:43:54.859Z,0.00
2023-01-28T03:46:22.261Z,0.00
2023-01-28T03:48:49.432Z,0.00
2023-01-28T03:51:17.942Z,0.00
2023-01-28T03:53:45.175Z,-0.10
2023-01-28T03:56:18.680Z,0.00
2023-01-28T03:58:56.742Z,0.00
2023-01-28T04:01:27.228Z,0.00
2023-01-28T04:03:54.493Z,-0.10
2023-01-28T04:06:21.771Z,-0.10
2023-01-28T04:08:52.823Z,-0.10
2023-01-28T04:11:21.503Z,-0.10
2023-01-28T04:13:49.403Z,-0.10
2023-01-28T04:16:19.183Z,-0.10
2023-01-28T04:18:47.211Z,-0.10
2023-01-28T04:21:14.632Z,-0.10
2023-01-28T04:23:41.860Z,0.00
2023-01-28T04:26:09.237Z,-0.10
2023-01-28T04:28:36.442Z,-0.10
2023-01-28T04:31:03.718Z,-0.10
2023-01-28T04:33:30.989Z,-0.10
2023-01-28T04:35:58.144Z,0.00
2023-01-28T04:38:25.411Z,0.00
2023-01-28T04:40:54.630Z,-0.10
2023-01-28T04:43:21.892Z,-0.10
2023-01-28T04:45:49.727Z,-0.10
2023-01-28T04:48:17.746Z,-0.10
2023-01-28T04:50:45.854Z,0.00
2023-01-28T04:53:13.339Z,-0.10
2023-01-28T04:55:40.702Z,-0.10
2023-01-28T04:58:07.943Z,0.00
2023-01-28T05:00:35.144Z,0.00
2023-01-28T05:03:02.429Z,0.00
2023-01-28T05:05:29.528Z,0.00
2023-01-28T05:07:59.078Z,0.00
2023-01-28T05:10:27.672Z,0.00
2023-01-28T05:12:55.164Z,0.00
2023-01-28T05:15:22.891Z,0.00
2023-01-28T05:17:49.980Z,0.00
2023-01-28T05:20:20.177Z,0.00
2023-01-28T05:22:47.312Z,0.00
2023-01-28T05:25:14.972Z,0.00
2023-01-28T05:27:42.316Z,0.00
2023-01-28T05:30:10.578Z,0.00
2023-01-28T05:32:37.760Z,0.00
2023-01-28T05:35:05.703Z,0.00
2023-01-28T05:37:32.904Z,0.00
2023-01-28T05:40:00.003Z,-0.10
2023-01-28T05:42:27.089Z,0.00
2023-01-28T05:44:54.205Z,0.00
2023-01-28T05:47:22.430Z,0.00
2023-01-28T05:49:49.693Z,0.00
2023-01-28T05:52:16.967Z,0.00
2023-01-28T05:54:44.721Z,0.00
2023-01-28T05:57:11.970Z,0.00
2023-01-28T05:59:39.580Z,0.00
2023-01-28T06:02:06.868Z,0.00
2023-01-28T06:04:34.167Z,0.00
2023-01-28T06:07:01.334Z,0.10
2023-01-28T06:09:28.672Z,0.00
2023-01-28T06:11:55.902Z,0.10
2023-01-28T06:14:23.155Z,0.10
2023-01-28T06:16:52.306Z,0.10
2023-01-28T06:19:19.696Z,0.10
2023-01-28T06:21:46.940Z,0.10
2023-01-28T06:24:14.280Z,0.10
2023-01-28T06:26:41.724Z,0.10
2023-01-28T06:29:09.289Z,0.10
2023-01-28T06:31:36.444Z,0.10
2023-01-28T06:34:03.703Z,0.10
2023-01-28T06:36:31.119Z,0.10
2023-01-28T06:38:58.801Z,0.10
2023-01-28T06:41:25.990Z,0.10
2023-01-28T06:43:53.162Z,0.20
2023-01-28T06:46:20.363Z,0.20
2023-01-28T06:48:47.494Z,0.20
2023-01-28T06:51:14.776Z,0.20
2023-01-28T06:53:46.105Z,0.20
2023-01-28T06:56:13.393Z,0.20
2023-01-28T06:58:40.752Z,0.20
2023-01-28T07:01:08.105Z,0.20
2023-01-28T07:03:36.305Z,0.30
2023-01-28T07:06:03.519Z,0.30
2023-01-28T07:08:30.948Z,0.30
2023-01-28T07:10:58.136Z,0.30
2023-01-28T07:13:25.446Z,0.30
2023-01-28T07:15:52.623Z,0.30
2023-01-28T07:18:19.852Z,0.30
2023-01-28T07:20:47.324Z,0.30
2023-01-28T07:23:14.552Z,0.40
2023-01-28T07:25:41.705Z,0.40
2023-01-28T07:28:08.814Z,0.40
2023-01-28T07:30:35.984Z,0.40
2023-01-28T07:33:03.230Z,0.40
2023-01-28T07:35:32.492Z,0.40
2023-01-28T07:38:01.420Z,0.50
2023-01-28T07:40:29.536Z,0.50
2023-01-28T07:42:57.093Z,0.40
2023-01-28T07:45:25.893Z,0.50
2023-01-28T07:47:59.279Z,0.40
2023-01-28T07:50:29.241Z,0.40
2023-01-28T07:52:57.635Z,0.50
2023-01-28T07:55:25.146Z,0.50
2023-01-28T07:57:59.298Z,0.50
2023-01-28T08:00:33.356Z,0.50
2023-01-28T08:03:03.529Z,0.60
2023-01-28T08:05:52.963Z,0.60
2023-01-28T08:08:20.059Z,0.60
2023-01-28T08:10:48.069Z,0.60
2023-01-28T08:13:16.994Z,0.70
2023-01-28T08:15:45.527Z,0.70
2023-01-28T08:18:16.422Z,0.80
2023-01-28T08:20:45.494Z,0.80
2023-01-28T08:23:18.927Z,0.80
2023-01-28T08:25:47.953Z,0.80
2023-01-28T08:28:17.420Z,0.80
2023-01-28T08:30:45.259Z,0.90
2023-01-28T08:33:17.594Z,0.90
2023-01-28T08:35:45.593Z,0.90
2023-01-28T08:38:15.441Z,0.90
2023-01-28T08:40:42.701Z,0.90
2023-01-28T08:43:10.191Z,0.90
2023-01-28T08:45:39.548Z,0.90
2023-01-28T08:48:11.597Z,0.90
2023-01-28T08:50:40.094Z,0.90
2023-01-28T08:53:17.707Z,0.90
2023-01-28T08:55:47.498Z,0.90
2023-01-28T08:58:18.810Z,0.90
2023-01-28T09:00:47.192Z,0.90
2023-01-28T09:03:14.348Z,0.90
2023-01-28T09:05:42.124Z,0.90
2023-01-28T09:08:15.338Z,0.90
2023-01-28T09:10:42.963Z,0.90
2023-01-28T09:13:14.171Z,0.90
2023-01-28T09:15:42.292Z,0.90
2023-01-28T09:18:10.108Z,0.90
2023-01-28T09:20:38.377Z,0.90
2023-01-28T09:23:06.254Z,0.90
2023-01-28T09:25:34.151Z,0.90
2023-01-28T09:28:05.240Z,1.00
2023-01-28T09:30:33.923Z,1.00
2023-01-28T09:33:02.079Z,1.00
2023-01-28T09:35:34.497Z,1.00
2023-01-28T09:38:01.615Z,1.00
2023-01-28T09:40:56.222Z,1.00
2023-01-28T09:43:47.253Z,1.00
2023-01-28T09:46:16.517Z,1.00
2023-01-28T09:48:52.096Z,1.00
2023-01-28T09:51:53.823Z,1.00
2023-01-28T09:54:52.696Z,1.10
2023-01-28T09:57:41.774Z,1.10
2023-01-28T10:00:18.698Z,1.10
2023-01-28T10:03:18.473Z,1.10
2023-01-28T10:05:57.489Z,1.20
2023-01-28T10:09:14.220Z,1.20
2023-01-28T10:11:50.725Z,1.10
2023-01-28T10:14:33.621Z,1.20
2023-01-28T10:17:04.295Z,1.20
2023-01-28T10:19:43.208Z,1.20
2023-01-28T10:22:20.668Z,1.30
2023-01-28T10:25:06.395Z,1.30
2023-01-28T10:27:36.197Z,1.30
2023-01-28T10:30:25.596Z,1.30
2023-01-28T10:33:19.357Z,1.40
2023-01-28T10:35:48.126Z,1.40
2023-01-28T10:38:20.685Z,1.40
2023-01-28T10:40:48.274Z,1.40
2023-01-28T10:43:24.991Z,1.40
2023-01-28T10:46:03.777Z,1.40
2023-01-28T10:48:35.297Z,1.40
2023-01-28T10:51:06.572Z,1.40
2023-01-28T10:53:45.728Z,1.40
2023-01-28T10:56:30.684Z,1.40
2023-01-28T10:59:03.746Z,1.40
2023-01-28T11:01:54.817Z,1.40
2023-01-28T11:04:32.510Z,1.40
2023-01-28T11:07:18.130Z,1.40
2023-01-28T11:09:52.108Z,1.30
2023-01-28T11:12:27.865Z,1.30
2023-01-28T11:14:59.716Z,1.30
2023-01-28T11:17:32.226Z,1.30
2023-01-28T11:20:11.349Z,1.30
2023-01-28T11:22:43.730Z,1.30
2023-01-28T11:25:23.054Z,1.40
2023-01-28T11:27:53.907Z,1.40
2023-01-28T11:30:35.095Z,1.40
2023-01-28T11:33:20.250Z,1.40
2023-01-28T11:35:55.461Z,1.40
2023-01-28T11:38:26.742Z,1.40
2023-01-28T11:40:57.060Z,1.40
2023-01-28T11:43:30.419Z,1.40
2023-01-28T11:46:19.021Z,1.40
2023-01-28T11:49:15.688Z,1.40
2023-01-28T11:52:19.435Z,1.40
2023-01-28T11:55:11.049Z,1.40
2023-01-28T11:58:26.596Z,1.40
2023-01-28T12:01:37.662Z,1.40
2023-01-28T12:04:51.702Z,1.40
2023-01-28T12:07:28.008Z,1.40
2023-01-28T12:10:08.075Z,1.50
2023-01-28T12:12:56.118Z,1.50
2023-01-28T12:15:49.972Z,1.60
2023-01-28T12:18:23.244Z,1.60
2023-01-28T12:21:20.666Z,1.60
2023-01-28T12:24:29.907Z,1.60
2023-01-28T12:27:40.831Z,1.60
2023-01-28T12:30:43.013Z,1.60
2023-01-28T12:33:59.900Z,1.60
2023-01-28T12:36:54.641Z,1.60
2023-01-28T12:39:59.358Z,1.60
2023-01-28T12:42:50.492Z,1.70
2023-01-28T12:45:31.308Z,1.70
2023-01-28T12:48:11.816Z,1.70
2023-01-28T12:51:10.521Z,1.70
2023-01-28T12:54:16.644Z,1.70
2023-01-28T12:56:54.067Z,1.70
2023-01-28T12:59:45.699Z,1.70
2023-01-28T13:02:12.840Z,1.70
2023-01-28T13:05:17.364Z,1.70
2023-01-28T13:07:55.727Z,1.70
2023-01-28T13:10:49.699Z,1.60
2023-01-28T13:13:36.055Z,1.60
2023-01-28T13:16:05.084Z,1.60
2023-01-28T13:18:44.121Z,1.60
2023-01-28T13:21:48.692Z,1.50
2023-01-28T13:24:16.138Z,1.50
2023-01-28T13:26:56.909Z,1.50
2023-01-28T13:29:34.334Z,1.50
2023-01-28T13:32:23.455Z,1.50
2023-01-28T13:35:06.068Z,1.40
2023-01-28T13:37:39.559Z,1.50
2023-01-28T13:40:15.295Z,1.50
2023-01-28T13:42:42.607Z,1.50
2023-01-28T13:45:16.008Z,1.40
2023-01-28T13:47:59.788Z,1.40
2023-01-28T13:50:40.094Z,1.40
2023-01-28T13:53:45.472Z,1.40
2023-01-28T13:56:25.746Z,1.40
2023-01-28T13:59:09.437Z,1.40
2023-01-28T14:01:59.678Z,1.40
2023-01-28T14:04:54.018Z,1.40
2023-01-28T14:08:09.303Z,1.40
2023-01-28T14:10:57.527Z,1.40
2023-01-28T14:13:51.348Z,1.50
2023-01-28T14:16:33.279Z,1.40
2023-01-28T14:19:02.512Z,1.40
2023-01-28T14:21:34.583Z,1.40
2023-01-28T14:24:01.941Z,1.40
2023-01-28T14:27:11.642Z,1.50
2023-01-28T14:30:10.669Z,1.40
2023-01-28T14:32:47.879Z,1.40
2023-01-28T14:35:30.708Z,1.40
2023-01-28T14:37:59.461Z,1.40
2023-01-28T14:40:30.127Z,1.40
2023-01-28T14:42:58.689Z,1.40
2023-01-28T14:45:34.856Z,1.40
2023-01-28T14:48:20.400Z,1.40
2023-01-28T14:51:10.819Z,1.30
2023-01-28T14:54:12.817Z,1.30
2023-01-28T14:56:52.466Z,1.30
2023-01-28T14:59:41.782Z,1.30
2023-01-28T15:02:23.748Z,1.40
2023-01-28T15:04:55.516Z,1.40
2023-01-28T15:07:27.847Z,1.30
2023-01-28T15:10:15.362Z,1.30
2023-01-28T15:12:50.733Z,1.30
2023-01-28T15:15:21.001Z,1.30
2023-01-28T15:17:49.215Z,1.30
2023-01-28T15:20:23.967Z,1.30
2023-01-28T15:22:54.792Z,1.30
2023-01-28T15:25:26.827Z,1.20
2023-01-28T15:27:58.595Z,1.20
2023-01-28T15:30:30.495Z,1.30
2023-01-28T15:33:11.597Z,1.20
2023-01-28T15:35:46.550Z,1.30
2023-01-28T15:38:14.070Z,1.20
2023-01-28T15:40:45.226Z,1.20
2023-01-28T15:43:27.709Z,1.20
2023-01-28T15:45:57.380Z,1.30
2023-01-28T15:48:29.609Z,1.20
2023-01-28T15:51:17.827Z,1.20
2023-01-28T15:53:53.317Z,1.20
2023-01-28T15:56:28.097Z,1.20
2023-01-28T15:58:56.733Z,1.20
2023-01-28T16:01:24.380Z,1.20
2023-01-28T16:04:07.308Z,1.20
2023-01-28T16:06:43.803Z,1.20
2023-01-28T16:09:31.501Z,1.10
2023-01-28T16:12:09.212Z,1.10
2023-01-28T16:14:49.935Z,1.10
2023-01-28T16:17:22.287Z,1.10
2023-01-28T16:19:58.042Z,1.10
2023-01-28T16:22:45.890Z,1.10
2023-01-28T16:25:22.342Z,1.10
2023-01-28T16:27:50.816Z,1.30
2023-01-28T16:30:18.897Z,1.30
2023-01-28T16:32:47.119Z,1.20
2023-01-28T16:35:34.629Z,1.20
2023-01-28T16:38:18.243Z,1.20
2023-01-28T16:40:47.652Z,1.20
2023-01-28T16:43:17.865Z,1.20
2023-01-28T16:45:47.169Z,1.20
2023-01-28T16:48:15.055Z,1.20
2023-01-28T16:50:43.571Z,1.20
2023-01-28T16:53:34.523Z,1.20
2023-01-28T16:56:07.093Z,1.20
2023-01-28T16:58:38.293Z,1.20
2023-01-28T17:01:05.953Z,1.20
2023-01-28T17:03:36.511Z,1.20
2023-01-28T17:06:04.546Z,1.20
2023-01-28T17:08:31.806Z,1.20
2023-01-28T17:10:59.095Z,1.20
2023-01-28T17:13:27.175Z,1.20
2023-01-28T17:15:54.928Z,1.20
2023-01-28T17:18:22.384Z,1.20
2023-01-28T17:20:52.771Z,1.20
2023-01-28T17:23:24.458Z,1.20
2023-01-28T17:25:51.946Z,1.20
2023-01-28T17:28:23.850Z,1.20
2023-01-28T17:30:51.839Z,1.20
2023-01-28T17:33:19.374Z,1.20
2023-01-28T17:35:49.904Z,1.20
2023-01-28T17:38:18.248Z,1.20
2023-01-28T17:40:48.176Z,1.20
2023-01-28T17:43:15.984Z,1.20
2023-01-28T17:45:43.861Z,1.20
2023-01-28T17:48:11.835Z,1.20
2023-01-28T17:50:41.253Z,1.20
2023-01-28T17:53:10.928Z,1.20
2023-01-28T17:55:38.825Z,1.20
2023-01-28T17:58:07.337Z,1.20
2023-01-28T18:00:35.462Z,1.30
2023-01-28T18:03:03.451Z,1.20
2023-01-28T18:05:31.169Z,1.30
2023-01-28T18:07:59.078Z,1.30
2023-01-28T18:10:26.730Z,1.30
2023-01-28T18:12:54.200Z,1.30
2023-01-28T18:15:23.945Z,1.30
2023-01-28T18:17:52.785Z,1.30
2023-01-28T18:20:20.386Z,1.30
2023-01-28T18:22:47.636Z,1.30
2023-01-28T18:25:19.727Z,1.30
2023-01-28T18:27:52.653Z,1.30
2023-01-28T18:30:23.480Z,1.30
2023-01-28T18:32:51.118Z,1.30
2023-01-28T18:35:18.882Z,1.40
2023-01-28T18:37:46.904Z,1.40
2023-01-28T18:40:14.726Z,1.40
2023-01-28T18:42:42.201Z,1.30
2023-01-28T18:45:10.724Z,1.30
2023-01-28T18:47:39.809Z,1.30
2023-01-28T18:50:08.688Z,1.40
2023-01-28T18:52:36.441Z,1.40
2023-01-28T18:55:04.381Z,1.40
2023-01-28T18:57:32.926Z,1.30
2023-01-28T19:00:00.888Z,1.30
2023-01-28T19:02:28.805Z,1.30
2023-01-28T19:04:57.654Z,1.30
2023-01-28T19:07:25.953Z,1.40
2023-01-28T19:09:54.242Z,1.40
2023-01-28T19:12:22.509Z,1.40
2023-01-28T19:14:51.819Z,1.40
2023-01-28T19:17:19.807Z,1.30
2023-01-28T19:19:48.504Z,1.30
2023-01-28T19:22:17.171Z,1.30
2023-01-28T19:24:46.209Z,1.30
2023-01-28T19:27:16.751Z,1.30
2023-01-28T19:29:44.263Z,1.30
2023-01-28T19:32:12.460Z,1.30
2023-01-28T19:34:40.676Z,1.30
2023-01-28T19:37:08.171Z,1.30
2023-01-28T19:39:35.953Z,1.30
2023-01-28T19:42:03.865Z,1.30
2023-01-28T19:44:32.821Z,1.30
2023-01-28T19:47:02.388Z,1.30
2023-01-28T19:49:30.881Z,1.30
2023-01-28T19:51:59.691Z,1.40
2023-01-28T19:54:28.467Z,1.40
2023-01-28T19:56:56.564Z,1.40
2023-01-28T19:59:24.469Z,1.30
2023-01-28T20:01:52.045Z,1.30
2023-01-28T20:04:20.030Z,1.30
2023-01-28T20:06:49.395Z,1.40
2023-01-28T20:09:23.848Z,1.30
2023-01-28T20:11:51.943Z,1.30
2023-01-28T20:14:24.068Z,1.30
2023-01-28T20:16:51.923Z,1.30
2023-01-28T20:19:20.368Z,1.40
2023-01-28T20:21:51.961Z,1.30
2023-01-28T20:24:19.952Z,1.30
2023-01-28T20:26:47.771Z,1.30
2023-01-28T20:29:18.910Z,1.30
2023-01-28T20:32:04.976Z,1.30
2023-01-28T20:34:36.788Z,1.40
2023-01-28T20:37:07.134Z,1.40
2023-01-28T20:39:34.780Z,1.40
2023-01-28T20:42:04.477Z,1.30
2023-01-28T20:44:32.628Z,1.40
2023-01-28T20:47:03.522Z,1.40
2023-01-28T20:49:31.092Z,1.30
2023-01-28T20:51:59.260Z,1.30
2023-01-28T20:54:27.327Z,1.30
2023-01-28T20:56:57.434Z,1.30
2023-01-28T20:59:25.753Z,1.30
2023-01-28T21:01:54.140Z,1.40
2023-01-28T21:04:25.306Z,1.30
2023-01-28T21:06:53.634Z,1.30
2023-01-28T21:09:22.887Z,1.40
2023-01-28T21:11:50.315Z,1.40
2023-01-28T21:14:18.736Z,1.30
2023-01-28T21:16:47.402Z,1.30
2023-01-28T21:19:17.550Z,1.30
2023-01-28T21:21:45.842Z,1.30
2023-01-28T21:24:13.487Z,1.30
2023-01-28T21:26:41.099Z,1.30
2023-01-28T21:29:08.615Z,1.30
2023-01-28T21:31:35.961Z,1.30
2023-01-28T21:34:03.451Z,1.30
2023-01-28T21:36:34.534Z,1.30
2023-01-28T21:39:03.432Z,1.30
2023-01-28T21:41:31.952Z,1.30
2023-01-28T21:43:59.883Z,1.30
2023-01-28T21:46:31.325Z,1.30
2023-01-28T21:49:01.785Z,1.40
2023-01-28T21:51:35.730Z,1.40
2023-01-28T21:54:05.522Z,1.30
2023-01-28T21:56:33.356Z,1.30
2023-01-28T21:59:19.418Z,1.30
2023-01-28T22:01:47.797Z,1.30
2023-01-28T22:04:17.819Z,1.20
2023-01-28T22:06:49.462Z,1.20
2023-01-28T22:09:16.697Z,1.20
2023-01-28T22:11:47.344Z,1.20
2023-01-28T22:14:14.936Z,1.20
2023-01-28T22:16:43.149Z,1.20
2023-01-28T22:19:11.336Z,1.20
2023-01-28T22:21:43.224Z,1.20
2023-01-28T22:24:17.368Z,1.20
2023-01-28T22:26:45.939Z,1.20
2023-01-28T22:29:16.423Z,1.20
2023-01-28T22:31:46.969Z,1.20
2023-01-28T22:34:14.928Z,1.20
2023-01-28T22:36:46.223Z,1.20
2023-01-28T22:39:16.724Z,1.20
2023-01-28T22:41:45.005Z,1.20
2023-01-28T22:44:16.142Z,1.10
2023-01-28T22:46:43.374Z,1.10
2023-01-28T22:49:12.112Z,1.10
2023-01-28T22:51:39.445Z,1.10
2023-01-28T22:54:06.785Z,1.10
2023-01-28T22:56:33.908Z,1.10
2023-01-28T22:59:03.722Z,1.10
2023-01-28T23:01:35.458Z,1.10
2023-01-28T23:04:02.743Z,1.10
2023-01-28T23:06:30.163Z,1.10
2023-01-28T23:08:57.413Z,1.10
2023-01-28T23:11:25.761Z,1.10
2023-01-28T23:14:22.573Z,1.10
2023-01-28T23:17:11.799Z,1.00
2023-01-28T23:19:57.802Z,1.00
2023-01-28T23:22:46.582Z,1.10
2023-01-28T23:25:14.852Z,1.10
2023-01-28T23:27:42.967Z,1.00
2023-01-28T23:30:12.276Z,1.00
2023-01-28T23:32:43.910Z,1.10
2023-01-28T23:35:12.626Z,1.00
2023-01-28T23:37:40.024Z,1.00
2023-01-28T23:40:11.475Z,1.00
2023-01-28T23:42:39.186Z,1.00
2023-01-28T23:45:07.777Z,1.00
2023-01-28T23:47:34.936Z,1.00
2023-01-28T23:50:02.241Z,1.00
2023-01-28T23:52:29.405Z,1.00
2023-01-28T23:54:56.594Z,1.00
2023-01-28T23:57:23.750Z,1.00
2023-01-28T23:59:51.834Z,0.90
